createdAt,value
2022-10-08T00:00:47.596Z,15.99
2022-10-08T00:03:18.161Z,15.98
2022-10-08T00:05:56.257Z,15.98
2022-10-08T00:08:24.307Z,16.04
2022-10-08T00:10:55.796Z,16.05
2022-10-08T00:13:24.855Z,16.04
2022-10-08T00:15:53.433Z,16.09
2022-10-08T00:18:22.643Z,16.07
2022-10-08T00:20:50.270Z,16.08
2022-10-08T00:23:17.923Z,16.10
2022-10-08T00:25:45.995Z,16.10
2022-10-08T00:28:14.664Z,16.10
2022-10-08T00:30:42.781Z,16.12
2022-10-08T00:33:12.257Z,16.17
2022-10-08T00:35:41.775Z,16.18
2022-10-08T00:38:09.331Z,16.15
2022-10-08T00:40:42.818Z,16.17
2022-10-08T00:43:15.532Z,16.23
2022-10-08T00:45:44.289Z,16.14
2022-10-08T00:48:15.023Z,16.08
2022-10-08T00:50:43.974Z,16.06
2022-10-08T00:53:11.823Z,16.09
2022-10-08T00:55:43.932Z,16.14
2022-10-08T00:58:16.477Z,16.07
2022-10-08T01:00:44.523Z,16.05
2022-10-08T01:03:12.164Z,16.03
2022-10-08T01:05:51.122Z,16.04
2022-10-08T01:08:29.574Z,16.05
2022-10-08T01:11:05.001Z,16.10
2022-10-08T01:13:42.163Z,16.08
2022-10-08T01:16:24.936Z,16.07
2022-10-08T01:18:58.976Z,16.09
2022-10-08T01:21:41.063Z,16.08
2022-10-08T01:24:47.360Z,16.04
2022-10-08T01:27:26.123Z,16.00
2022-10-08T01:29:55.910Z,15.99
2022-10-08T01:32:28.175Z,16.03
2022-10-08T01:35:00.100Z,16.07
2022-10-08T01:37:33.164Z,16.06
2022-10-08T01:40:06.320Z,16.05
2022-10-08T01:42:39.923Z,16.06
2022-10-08T01:45:13.368Z,16.05
2022-10-08T01:47:44.226Z,15.96
2022-10-08T01:50:17.090Z,15.99
2022-10-08T01:52:49.384Z,16.02
2022-10-08T01:55:22.047Z,16.06
2022-10-08T01:57:52.357Z,16.07
2022-10-08T02:00:20.667Z,16.01
2022-10-08T02:02:48.592Z,16.02
2022-10-08T02:05:16.533Z,16.03
2022-10-08T02:07:44.493Z,16.02
2022-10-08T02:10:14.371Z,16.03
2022-10-08T02:12:43.036Z,16.04
2022-10-08T02:15:15.203Z,16.04
2022-10-08T02:17:53.268Z,16.07
2022-10-08T02:20:26.884Z,16.08
2022-10-08T02:23:00.268Z,16.08
2022-10-08T02:25:34.453Z,16.07
2022-10-08T02:28:09.408Z,16.06
2022-10-08T02:30:44.250Z,16.05
2022-10-08T02:33:15.887Z,16.04
2022-10-08T02:35:48.530Z,16.06
2022-10-08T02:38:22.225Z,16.02
2022-10-08T02:40:53.847Z,15.98
2022-10-08T02:43:24.992Z,16.00
2022-10-08T02:45:58.978Z,15.99
2022-10-08T02:48:31.221Z,15.99
2022-10-08T02:51:03.129Z,15.94
2022-10-08T02:53:32.126Z,15.94
2022-10-08T02:56:09.430Z,15.95
2022-10-08T02:58:37.453Z,15.92
2022-10-08T03:01:13.670Z,15.89
2022-10-08T03:03:47.189Z,15.87
2022-10-08T03:06:16.884Z,15.85
2022-10-08T03:08:49.099Z,15.86
2022-10-08T03:11:17.406Z,15.81
2022-10-08T03:13:49.257Z,15.80
2022-10-08T03:16:23.055Z,15.83
2022-10-08T03:18:52.121Z,15.87
2022-10-08T03:21:20.198Z,15.89
2022-10-08T03:23:48.062Z,15.89
2022-10-08T03:26:18.026Z,15.94
2022-10-08T03:28:45.975Z,15.92
2022-10-08T03:31:13.891Z,15.97
2022-10-08T03:33:42.796Z,15.92
2022-10-08T03:36:10.578Z,15.84
2022-10-08T03:38:38.201Z,15.83
2022-10-08T03:41:05.839Z,15.82
2022-10-08T03:43:34.539Z,15.76
2022-10-08T03:46:02.904Z,15.77
2022-10-08T03:48:30.751Z,15.79
2022-10-08T03:51:01.570Z,15.78
2022-10-08T03:53:32.845Z,15.76
2022-10-08T03:56:01.734Z,15.74
2022-10-08T03:58:29.415Z,15.74
2022-10-08T04:00:58.728Z,15.69
2022-10-08T04:03:27.359Z,15.71
2022-10-08T04:05:55.179Z,15.70
2022-10-08T04:08:24.423Z,15.67
2022-10-08T04:10:52.313Z,15.63
2022-10-08T04:13:20.625Z,15.55
2022-10-08T04:15:50.730Z,15.47
2022-10-08T04:18:19.170Z,15.47
2022-10-08T04:20:46.853Z,15.44
2022-10-08T04:23:14.509Z,15.42
2022-10-08T04:25:51.871Z,15.44
2022-10-08T04:28:20.346Z,15.45
2022-10-08T04:30:56.394Z,15.41
2022-10-08T04:33:24.348Z,15.37
2022-10-08T04:35:56.191Z,15.35
2022-10-08T04:38:26.954Z,15.30
2022-10-08T04:41:04.650Z,15.28
2022-10-08T04:43:32.318Z,15.27
2022-10-08T04:46:00.009Z,15.28
2022-10-08T04:48:27.826Z,15.27
2022-10-08T04:50:56.788Z,15.32
2022-10-08T04:53:25.623Z,15.29
2022-10-08T04:55:53.735Z,15.26
2022-10-08T04:58:24.521Z,15.24
2022-10-08T05:00:52.533Z,15.25
2022-10-08T05:03:20.145Z,15.21
2022-10-08T05:05:47.799Z,15.18
2022-10-08T05:08:15.415Z,14.96
2022-10-08T05:10:49.397Z,14.84
2022-10-08T05:13:17.154Z,14.87
2022-10-08T05:15:46.220Z,14.86
2022-10-08T05:18:13.908Z,14.80
2022-10-08T05:20:41.642Z,14.74
2022-10-08T05:23:09.351Z,14.72
2022-10-08T05:25:37.173Z,14.68
2022-10-08T05:28:05.412Z,14.68
2022-10-08T05:30:33.248Z,14.72
2022-10-08T05:33:02.316Z,14.71
2022-10-08T05:35:29.892Z,14.77
2022-10-08T05:37:58.104Z,14.74
2022-10-08T05:40:25.739Z,14.73
2022-10-08T05:42:53.910Z,14.70
2022-10-08T05:45:21.490Z,14.70
2022-10-08T05:47:49.284Z,14.69
2022-10-08T05:50:18.367Z,14.65
2022-10-08T05:52:46.185Z,14.55
2022-10-08T05:55:13.960Z,14.56
2022-10-08T05:57:41.569Z,14.59
2022-10-08T06:00:10.518Z,14.54
2022-10-08T06:02:38.242Z,14.53
2022-10-08T06:05:06.623Z,14.55
2022-10-08T06:07:35.621Z,14.53
2022-10-08T06:10:03.304Z,14.58
2022-10-08T06:12:30.866Z,14.68
2022-10-08T06:14:58.451Z,14.65
2022-10-08T06:17:26.078Z,14.63
2022-10-08T06:19:53.636Z,14.70
2022-10-08T06:22:21.186Z,14.67
2022-10-08T06:24:50.116Z,14.72
2022-10-08T06:27:17.749Z,14.71
2022-10-08T06:29:45.386Z,14.65
2022-10-08T06:32:12.998Z,14.74
2022-10-08T06:34:42.002Z,15.00
2022-10-08T06:37:09.623Z,14.91
2022-10-08T06:39:37.294Z,14.90
2022-10-08T06:42:06.385Z,14.90
2022-10-08T06:44:33.968Z,14.91
2022-10-08T06:47:01.665Z,14.93
2022-10-08T06:49:29.393Z,14.97
2022-10-08T06:51:57.060Z,14.99
2022-10-08T06:54:26.178Z,15.03
2022-10-08T06:56:55.644Z,15.09
2022-10-08T06:59:24.629Z,15.15
2022-10-08T07:01:52.247Z,15.20
2022-10-08T07:04:19.867Z,15.25
2022-10-08T07:06:47.458Z,15.28
2022-10-08T07:09:15.130Z,15.28
2022-10-08T07:11:42.696Z,15.28
2022-10-08T07:14:10.390Z,15.31
2022-10-08T07:16:39.393Z,15.36
2022-10-08T07:19:07.017Z,15.32
2022-10-08T07:21:34.608Z,15.36
2022-10-08T07:24:02.547Z,15.37
2022-10-08T07:26:33.125Z,15.46
2022-10-08T07:29:02.681Z,15.48
2022-10-08T07:31:32.409Z,15.53
2022-10-08T07:34:03.363Z,15.62
2022-10-08T07:36:32.191Z,15.69
2022-10-08T07:39:01.484Z,15.80
2022-10-08T07:41:30.337Z,15.96
2022-10-08T07:43:59.984Z,16.05
2022-10-08T07:46:27.767Z,16.10
2022-10-08T07:48:59.012Z,16.12
2022-10-08T07:51:29.163Z,16.12
2022-10-08T07:54:01.569Z,16.10
2022-10-08T07:56:30.919Z,16.12
2022-10-08T07:58:59.480Z,16.17
2022-10-08T08:01:29.502Z,16.21
2022-10-08T08:03:59.303Z,16.24
2022-10-08T08:06:28.551Z,16.25
2022-10-08T08:08:56.770Z,16.29
2022-10-08T08:11:25.538Z,16.29
2022-10-08T08:13:53.870Z,16.30
2022-10-08T08:16:25.249Z,16.36
2022-10-08T08:18:54.984Z,16.38
2022-10-08T08:21:28.878Z,16.42
2022-10-08T08:23:58.220Z,16.47
2022-10-08T08:26:28.223Z,16.54
2022-10-08T08:28:58.011Z,16.62
2022-10-08T08:31:28.837Z,16.69
2022-10-08T08:33:58.024Z,16.96
2022-10-08T08:36:29.826Z,17.22
2022-10-08T08:38:57.936Z,17.40
2022-10-08T08:41:39.050Z,17.55
2022-10-08T08:44:13.127Z,17.82
2022-10-08T08:46:46.818Z,18.78
2022-10-08T08:49:21.074Z,20.71
2022-10-08T08:51:50.037Z,24.36
2022-10-08T08:54:17.672Z,26.11
2022-10-08T08:56:45.553Z,25.20
2022-10-08T08:59:25.224Z,23.53
2022-10-08T09:01:57.291Z,22.19
2022-10-08T09:04:34.422Z,21.08
2022-10-08T09:07:06.877Z,20.23
2022-10-08T09:09:39.222Z,19.63
2022-10-08T09:12:20.468Z,19.18
2022-10-08T09:14:53.013Z,18.87
2022-10-08T09:17:24.334Z,18.61
2022-10-08T09:19:52.116Z,18.43
2022-10-08T09:52:17.520Z,21.14
2022-10-08T09:54:48.873Z,20.65
2022-10-08T10:22:00.251Z,18.57
2022-10-08T10:24:37.492Z,18.30
2022-10-08T10:27:10.725Z,18.21
2022-10-08T10:29:59.508Z,18.08
2022-10-08T10:32:32.291Z,18.00
2022-10-08T10:35:07.277Z,18.00
2022-10-08T10:37:44.852Z,17.95
2022-10-08T10:40:25.020Z,17.99
2022-10-08T10:43:01.902Z,18.10
2022-10-08T10:45:35.090Z,18.32
2022-10-08T10:48:03.664Z,18.48
2022-10-08T10:50:41.495Z,18.56
2022-10-08T10:53:20.129Z,18.65
2022-10-08T10:55:57.159Z,18.65
2022-10-08T10:58:41.826Z,18.73
2022-10-08T11:01:24.113Z,18.83
2022-10-08T11:04:01.968Z,18.84
2022-10-08T11:06:45.992Z,18.72
2022-10-08T11:09:24.030Z,18.58
2022-10-08T11:11:55.850Z,18.38
2022-10-08T11:14:49.626Z,18.23
2022-10-08T11:17:31.010Z,18.09
2022-10-08T11:20:13.150Z,18.00
2022-10-08T11:22:48.591Z,17.92
2022-10-08T11:25:29.215Z,17.84
2022-10-08T11:28:10.242Z,17.82
2022-10-08T11:30:48.653Z,17.79
2022-10-08T11:33:18.021Z,17.75
2022-10-08T11:35:54.743Z,17.75
2022-10-08T11:38:30.398Z,17.74
2022-10-08T11:41:07.726Z,17.74
2022-10-08T11:43:42.802Z,17.72
2022-10-08T11:46:22.582Z,17.66
2022-10-08T11:48:50.882Z,17.65
2022-10-08T11:51:32.792Z,17.66
2022-10-08T11:54:21.698Z,17.65
2022-10-08T11:56:52.897Z,17.66
2022-10-08T11:59:35.272Z,17.70
2022-10-08T12:02:06.725Z,17.75
2022-10-08T12:04:36.349Z,17.86
2022-10-08T12:07:18.409Z,17.95
2022-10-08T12:10:23.489Z,18.04
2022-10-08T12:13:24.348Z,18.11
2022-10-08T12:16:06.977Z,18.16
2022-10-08T12:18:53.598Z,18.26
2022-10-08T12:21:50.011Z,18.36
2022-10-08T12:24:50.881Z,18.38
2022-10-08T12:27:37.813Z,18.68
2022-10-08T12:30:10.826Z,18.89
2022-10-08T12:32:56.975Z,19.15
2022-10-08T12:35:34.062Z,19.23
2022-10-08T12:38:28.142Z,19.07
2022-10-08T12:41:10.701Z,18.89
2022-10-08T12:43:48.570Z,18.76
2022-10-08T12:46:30.778Z,18.61
2022-10-08T12:49:02.624Z,18.51
2022-10-08T12:51:41.431Z,18.46
2022-10-08T12:54:19.549Z,18.40
2022-10-08T12:56:47.806Z,18.34
2022-10-08T12:59:16.082Z,18.35
2022-10-08T13:01:46.634Z,18.36
2022-10-08T13:04:25.238Z,18.53
2022-10-08T13:06:54.298Z,18.66
2022-10-08T13:09:28.961Z,18.74
2022-10-08T13:12:02.897Z,18.74
2022-10-08T13:14:33.270Z,18.80
2022-10-08T13:17:03.126Z,18.85
2022-10-08T13:19:33.088Z,18.92
2022-10-08T13:22:03.001Z,18.98
2022-10-08T13:24:39.399Z,19.03
2022-10-08T13:27:07.958Z,19.09
2022-10-08T13:29:37.727Z,19.06
2022-10-08T13:32:19.873Z,19.13
2022-10-08T13:34:50.134Z,19.18
2022-10-08T13:37:26.835Z,19.20
2022-10-08T13:39:56.576Z,19.14
2022-10-08T13:42:26.932Z,19.17
2022-10-08T13:44:54.706Z,19.22
2022-10-08T13:47:23.945Z,19.32
2022-10-08T13:49:51.540Z,19.39
2022-10-08T13:52:21.653Z,19.44
2022-10-08T13:54:51.339Z,19.40
2022-10-08T13:57:18.906Z,19.32
2022-10-08T13:59:46.569Z,19.27
2022-10-08T14:02:14.969Z,19.23
2022-10-08T14:04:43.960Z,19.18
2022-10-08T14:07:22.646Z,19.06
2022-10-08T14:09:50.382Z,18.96
2022-10-08T14:12:22.185Z,18.96
2022-10-08T14:14:49.861Z,19.00
2022-10-08T14:17:17.421Z,19.01
2022-10-08T14:19:46.472Z,18.97
2022-10-08T14:22:14.625Z,18.88
2022-10-08T14:24:42.295Z,18.83
2022-10-08T14:27:10.031Z,18.89
2022-10-08T14:29:37.987Z,18.94
2022-10-08T14:32:08.348Z,18.91
2022-10-08T14:34:36.546Z,18.89
2022-10-08T14:37:05.867Z,18.92
2022-10-08T14:39:33.548Z,18.99
2022-10-08T14:42:01.119Z,19.04
2022-10-08T14:44:28.694Z,19.02
2022-10-08T14:46:56.261Z,19.04
2022-10-08T14:49:24.200Z,19.01
2022-10-08T14:51:51.792Z,18.98
2022-10-08T14:54:21.083Z,18.97
2022-10-08T14:56:48.897Z,18.96
2022-10-08T14:59:16.692Z,18.92
2022-10-08T15:01:44.615Z,18.90
2022-10-08T15:04:14.935Z,18.88
2022-10-08T15:06:43.347Z,18.83
2022-10-08T15:09:12.286Z,18.82
2022-10-08T15:11:41.366Z,18.74
2022-10-08T15:14:09.557Z,18.66
2022-10-08T15:16:39.461Z,18.61
2022-10-08T15:19:08.191Z,18.57
2022-10-08T15:21:35.999Z,18.55
2022-10-08T15:24:03.686Z,18.51
2022-10-08T15:26:31.399Z,18.51
2022-10-08T15:29:01.288Z,18.46
2022-10-08T15:31:29.587Z,18.42
2022-10-08T15:33:59.523Z,18.37
2022-10-08T15:36:29.294Z,18.32
2022-10-08T15:38:58.857Z,18.30
2022-10-08T15:41:28.125Z,18.25
2022-10-08T15:43:56.131Z,18.22
2022-10-08T15:46:28.894Z,18.20
2022-10-08T15:48:58.124Z,18.16
2022-10-08T15:51:25.892Z,18.12
2022-10-08T15:53:53.673Z,18.09
2022-10-08T15:56:21.654Z,18.05
2022-10-08T15:58:51.616Z,18.03
2022-10-08T16:01:22.159Z,18.01
2022-10-08T16:03:53.818Z,17.99
2022-10-08T16:06:23.589Z,17.97
2022-10-08T16:08:53.972Z,17.93
2022-10-08T16:11:23.468Z,17.92
2022-10-08T16:13:53.711Z,17.86
2022-10-08T16:16:21.831Z,17.76
2022-10-08T16:18:57.217Z,17.70
2022-10-08T16:21:24.926Z,17.62
2022-10-08T16:23:52.724Z,17.56
2022-10-08T16:26:22.894Z,17.52
2022-10-08T16:28:54.924Z,17.46
2022-10-08T16:31:23.414Z,17.46
2022-10-08T16:33:56.159Z,17.41
2022-10-08T16:36:24.197Z,17.37
2022-10-08T16:38:53.049Z,17.43
2022-10-08T16:41:22.717Z,17.31
2022-10-08T16:43:52.330Z,17.25
2022-10-08T16:46:21.831Z,17.18
2022-10-08T16:48:54.190Z,17.09
2022-10-08T16:51:23.502Z,17.04
2022-10-08T16:53:52.145Z,17.01
2022-10-08T16:56:20.830Z,16.95
2022-10-08T16:58:52.890Z,16.92
2022-10-08T17:01:20.843Z,16.91
2022-10-08T17:03:49.594Z,16.89
2022-10-08T17:06:20.283Z,16.85
2022-10-08T17:08:47.946Z,16.87
2022-10-08T17:11:16.323Z,16.88
2022-10-08T17:13:45.768Z,16.87
2022-10-08T17:16:14.084Z,16.83
2022-10-08T17:18:44.169Z,16.75
2022-10-08T17:21:13.832Z,16.72
2022-10-08T17:23:43.238Z,16.72
2022-10-08T17:26:13.355Z,16.72
2022-10-08T17:28:42.798Z,16.67
2022-10-08T17:31:14.316Z,16.66
2022-10-08T17:33:42.617Z,16.60
2022-10-08T17:36:13.737Z,16.56
2022-10-08T17:38:43.754Z,16.47
2022-10-08T17:41:15.506Z,16.42
2022-10-08T17:43:44.112Z,16.42
2022-10-08T17:46:14.391Z,16.40
2022-10-08T17:48:42.796Z,16.31
2022-10-08T17:51:12.739Z,16.31
2022-10-08T17:53:42.237Z,16.31
2022-10-08T17:56:11.776Z,16.17
2022-10-08T17:58:39.830Z,16.11
2022-10-08T18:01:09.775Z,16.09
2022-10-08T18:03:38.958Z,16.05
2022-10-08T18:06:08.018Z,16.02
2022-10-08T18:08:36.201Z,16.01
2022-10-08T18:11:06.824Z,15.99
2022-10-08T18:13:34.674Z,15.98
2022-10-08T18:16:06.268Z,15.96
2022-10-08T18:18:34.555Z,15.92
2022-10-08T18:21:03.865Z,15.87
2022-10-08T18:23:33.755Z,15.83
2022-10-08T18:26:11.320Z,15.77
2022-10-08T18:28:39.279Z,15.74
2022-10-08T18:31:08.552Z,15.71
2022-10-08T18:33:42.082Z,15.70
2022-10-08T18:36:11.279Z,15.63
2022-10-08T18:38:38.985Z,15.55
2022-10-08T18:41:16.053Z,15.48
2022-10-08T18:43:44.405Z,15.38
2022-10-08T18:46:12.535Z,15.36
2022-10-08T18:48:40.315Z,15.42
2022-10-08T18:51:09.598Z,15.51
2022-10-08T18:53:39.402Z,15.53
2022-10-08T18:56:09.922Z,15.51
2022-10-08T18:58:38.882Z,15.48
2022-10-08T19:01:07.456Z,15.49
2022-10-08T19:03:35.141Z,15.52
2022-10-08T19:06:02.736Z,15.49
2022-10-08T19:08:30.320Z,15.44
2022-10-08T19:10:57.993Z,15.42
2022-10-08T19:13:25.667Z,15.46
2022-10-08T19:15:54.694Z,15.44
2022-10-08T19:18:22.386Z,15.48
2022-10-08T19:20:50.096Z,15.73
2022-10-08T19:23:17.702Z,15.67
2022-10-08T19:25:45.312Z,15.64
2022-10-08T19:28:12.995Z,15.65
2022-10-08T19:30:40.659Z,15.65
2022-10-08T19:33:09.694Z,15.60
2022-10-08T19:35:37.360Z,15.59
2022-10-08T19:38:04.959Z,15.56
2022-10-08T19:40:32.648Z,15.51
2022-10-08T19:43:00.326Z,15.52
2022-10-08T19:45:27.890Z,15.47
2022-10-08T19:47:55.570Z,15.41
2022-10-08T19:50:24.587Z,15.40
2022-10-08T19:52:52.279Z,15.36
2022-10-08T19:55:19.923Z,15.32
2022-10-08T19:57:47.651Z,15.27
2022-10-08T20:00:16.168Z,15.22
2022-10-08T20:02:45.450Z,15.18
2022-10-08T20:05:13.343Z,15.16
2022-10-08T20:07:42.336Z,15.11
2022-10-08T20:10:10.914Z,15.10
2022-10-08T20:12:38.524Z,15.07
2022-10-08T20:15:09.571Z,15.01
2022-10-08T20:17:39.147Z,14.98
2022-10-08T20:20:31.201Z,15.01
2022-10-08T20:22:57.278Z,14.97
2022-10-08T20:25:26.070Z,14.95
2022-10-08T20:27:53.806Z,14.93
2022-10-08T20:30:21.551Z,14.84
2022-10-08T20:32:49.428Z,14.80
2022-10-08T20:35:17.445Z,14.82
2022-10-08T20:37:45.122Z,14.83
2022-10-08T20:40:14.102Z,14.85
2022-10-08T20:42:41.811Z,14.86
2022-10-08T20:45:11.918Z,14.67
2022-10-08T20:47:39.525Z,14.67
2022-10-08T20:50:07.708Z,14.66
2022-10-08T20:52:35.383Z,14.63
2022-10-08T20:55:02.953Z,14.67
2022-10-08T20:57:31.907Z,14.65
2022-10-08T20:59:59.512Z,14.67
2022-10-08T21:02:27.450Z,14.70
2022-10-08T21:04:55.104Z,14.70
2022-10-08T21:07:22.937Z,14.62
2022-10-08T21:09:52.458Z,14.57
2022-10-08T21:12:20.031Z,14.58
2022-10-08T21:14:49.115Z,14.57
2022-10-08T21:17:16.687Z,14.55
2022-10-08T21:19:44.246Z,14.58
2022-10-08T21:22:11.847Z,14.47
2022-10-08T21:24:39.499Z,14.40
2022-10-08T21:27:07.141Z,14.38
2022-10-08T21:29:35.054Z,14.37
2022-10-08T21:32:04.216Z,14.20
2022-10-08T21:34:32.137Z,14.11
2022-10-08T21:36:59.745Z,14.10
2022-10-08T21:39:27.354Z,13.99
2022-10-08T21:41:54.973Z,14.00
2022-10-08T21:44:23.047Z,14.00
2022-10-08T21:46:50.682Z,14.03
2022-10-08T21:49:21.033Z,14.02
2022-10-08T21:51:49.235Z,14.03
2022-10-08T21:54:17.626Z,13.96
2022-10-08T21:56:45.859Z,13.85
2022-10-08T21:59:15.341Z,13.90
2022-10-08T22:01:44.837Z,13.96
2022-10-08T22:04:14.478Z,13.86
2022-10-08T22:06:45.666Z,13.85
2022-10-08T22:09:16.046Z,13.93
2022-10-08T22:11:43.990Z,13.99
2022-10-08T22:14:11.745Z,13.98
2022-10-08T22:16:39.559Z,13.92
2022-10-08T22:19:07.291Z,13.83
2022-10-08T22:21:35.600Z,13.78
2022-10-08T22:24:05.706Z,13.82
2022-10-08T22:26:35.892Z,13.78
2022-10-08T22:29:04.999Z,13.77
2022-10-08T22:31:33.204Z,13.72
2022-10-08T22:34:00.977Z,13.63
2022-10-08T22:36:31.453Z,13.59
2022-10-08T22:38:59.929Z,13.57
2022-10-08T22:41:31.842Z,13.60
2022-10-08T22:44:00.202Z,13.57
2022-10-08T22:46:29.631Z,13.52
2022-10-08T22:48:58.303Z,13.50
2022-10-08T22:51:26.091Z,13.49
2022-10-08T22:53:54.350Z,13.65
2022-10-08T22:56:25.485Z,13.61
2022-10-08T22:58:55.086Z,13.59
2022-10-08T23:01:24.600Z,13.60
2022-10-08T23:03:52.785Z,13.54
2022-10-08T23:06:22.062Z,13.48
2022-10-08T23:08:54.372Z,13.44
2022-10-08T23:11:22.510Z,13.37
2022-10-08T23:13:56.413Z,13.36
2022-10-08T23:16:25.683Z,13.31
2022-10-08T23:18:54.656Z,13.27
2022-10-08T23:21:22.779Z,13.29
2022-10-08T23:23:51.239Z,13.19
2022-10-08T23:26:19.358Z,13.15
2022-10-08T23:28:51.647Z,13.14
2022-10-08T23:31:22.695Z,13.03
2022-10-08T23:33:52.530Z,13.06
2022-10-08T23:36:22.195Z,13.06
2022-10-08T23:38:50.282Z,13.01
2022-10-08T23:41:19.232Z,12.92
2022-10-08T23:43:48.389Z,12.94
2022-10-08T23:46:18.049Z,12.96
2022-10-08T23:48:47.423Z,12.89
2022-10-08T23:51:16.072Z,12.81
2022-10-08T23:53:44.579Z,12.74
2022-10-08T23:56:12.746Z,12.71
2022-10-08T23:58:40.751Z,12.69
